Time;durP1;ratioP1;P1;durP2;ratioP2;P2;SDS_P1;SDS_P2;PMS_P1;PMS_P2;Temp;Humidity;BMP_temperature;BMP_pressure;BME280_temperature;BME280_humidity;BME280_pressure;Samples;Min_cycle;Max_cycle;Signal;HPM_P1;HPM_P2
2022/06/10 00:02:43;;;;;;;8.27;4.70;;;;;;;;;;5078109;28;20045;-83
2022/06/10 00:05:30;;;;;;;5.63;4.57;;;;;;;;;;5079526;28;20041;-83
2022/06/10 00:08:20;;;;;;;7.47;5.03;;;;;;;;;;5076228;28;20044;-83
2022/06/10 00:11:07;;;;;;;7.43;5.35;;;;;;;;;;5082274;28;20059;-83
2022/06/10 00:13:53;;;;;;;10.00;5.32;;;;;;;;;;5076841;28;20508;-83
2022/06/10 00:16:38;;;;;;;7.18;5.38;;;;;;;;;;5075736;28;20041;-82
2022/06/10 00:19:24;;;;;;;7.72;5.28;;;;;;;;;;5076222;28;20052;-83
2022/06/10 00:22:09;;;;;;;9.13;5.00;;;;;;;;;;5075908;28;20393;-83
2022/06/10 00:24:55;;;;;;;8.40;4.63;;;;;;;;;;5076062;28;20040;-82
2022/06/10 00:27:41;;;;;;;7.07;4.57;;;;;;;;;;5076309;28;20044;-82
2022/06/10 00:30:29;;;;;;;7.25;4.88;;;;;;;;;;5067156;28;20140;-83
2022/06/10 00:33:14;;;;;;;7.93;4.63;;;;;;;;;;5082903;28;20041;-83
2022/06/10 00:36:00;;;;;;;5.53;4.45;;;;;;;;;;5076499;28;20037;-82
2022/06/10 00:38:45;;;;;;;5.57;4.15;;;;;;;;;;5075414;28;20045;-82
2022/06/10 00:41:30;;;;;;;7.68;4.30;;;;;;;;;;5075908;28;20048;-82
2022/06/10 00:44:36;;;;;;;8.48;3.92;;;;;;;;;;5075017;28;20428;-83
2022/06/10 00:47:38;;;;;;;5.22;4.00;;;;;;;;;;5076181;28;20048;-83
2022/06/10 00:50:30;;;;;;;6.28;4.50;;;;;;;;;;5075893;28;20049;-83
2022/06/10 00:53:05;;;;;;;8.70;3.85;;;;;;;;;;5117446;22;20052;-83
2022/06/10 00:55:54;;;;;;;7.10;4.03;;;;;;;;;;5095813;28;20048;-83
2022/06/10 00:59:04;;;;;;;9.57;3.83;;;;;;;;;;5095621;28;20040;-83
2022/06/10 01:01:54;;;;;;;9.20;3.90;;;;;;;;;;5096145;28;20052;-83
2022/06/10 01:04:42;;;;;;;5.78;3.80;;;;;;;;;;5102709;28;20416;-83
2022/06/10 01:07:35;;;;;;;8.63;4.13;;;;;;;;;;5102580;28;20044;-83
2022/06/10 01:10:21;;;;;;;7.65;3.88;;;;;;;;;;5095504;28;20048;-83
2022/06/10 01:13:19;;;;;;;7.60;3.85;;;;;;;;;;5080310;28;20047;-83
2022/06/10 01:16:32;;;;;;;6.35;4.20;;;;;;;;;;5095607;28;20044;-83
2022/06/10 01:19:50;;;;;;;5.63;4.40;;;;;;;;;;5095542;28;20036;-83
2022/06/10 01:23:20;;;;;;;6.50;4.55;;;;;;;;;;5102314;28;20382;-83
2022/06/10 01:30:21;;;;;;;5.82;4.30;;;;;;;;;;5094693;28;20044;-81
2022/06/10 01:33:29;;;;;;;8.65;4.18;;;;;;;;;;5079665;28;20043;-82
2022/06/10 01:36:24;;;;;;;5.55;3.75;;;;;;;;;;5094658;28;20489;-82
2022/06/10 01:39:16;;;;;;;6.50;3.83;;;;;;;;;;5101188;28;20048;-82
2022/06/10 01:42:25;;;;;;;6.78;4.38;;;;;;;;;;5079583;28;20044;-82
2022/06/10 01:45:25;;;;;;;11.20;4.78;;;;;;;;;;5094701;28;20389;-82
2022/06/10 01:48:32;;;;;;;10.80;5.13;;;;;;;;;;5094763;28;20032;-82
2022/06/10 01:51:32;;;;;;;11.43;5.00;;;;;;;;;;5094725;28;20036;-82
2022/06/10 01:54:41;;;;;;;7.70;4.80;;;;;;;;;;5094247;28;20048;-82
2022/06/10 01:57:45;;;;;;;13.50;4.75;;;;;;;;;;5094751;28;20037;-82
2022/06/10 02:00:34;;;;;;;7.85;4.82;;;;;;;;;;5093953;28;20496;-82
2022/06/10 02:03:23;;;;;;;9.30;5.15;;;;;;;;;;5094323;28;20040;-82
2022/06/10 02:06:31;;;;;;;5.93;4.78;;;;;;;;;;5100926;28;20485;-83
2022/06/10 02:09:22;;;;;;;16.38;5.25;;;;;;;;;;5094266;28;20043;-82
2022/06/10 02:12:18;;;;;;;7.15;4.97;;;;;;;;;;5094368;28;20392;-82
2022/06/10 02:15:12;;;;;;;9.25;5.40;;;;;;;;;;5093707;28;20044;-82
2022/06/10 02:18:03;;;;;;;6.05;4.90;;;;;;;;;;5085765;28;20044;-83
2022/06/10 02:20:54;;;;;;;11.40;5.25;;;;;;;;;;5094064;28;20052;-83
2022/06/10 02:23:43;;;;;;;10.45;5.00;;;;;;;;;;5079275;28;20484;-83
2022/06/10 02:26:34;;;;;;;9.45;5.35;;;;;;;;;;5094120;28;20040;-83
2022/06/10 02:29:25;;;;;;;12.30;5.50;;;;;;;;;;5093286;28;20039;-82
2022/06/10 02:32:11;;;;;;;11.60;5.15;;;;;;;;;;5078944;28;20044;-82
2022/06/10 02:34:57;;;;;;;8.93;5.15;;;;;;;;;;5093547;28;20044;-83
2022/06/10 02:38:13;;;;;;;6.85;4.97;;;;;;;;;;5094121;28;20040;-82
2022/06/10 02:41:09;;;;;;;8.83;5.50;;;;;;;;;;5087825;28;20048;-82
2022/06/10 02:44:17;;;;;;;10.95;5.13;;;;;;;;;;5093868;28;20272;-82
2022/06/10 02:47:12;;;;;;;8.18;5.80;;;;;;;;;;5094236;28;20385;-82
2022/06/10 02:49:58;;;;;;;10.23;5.72;;;;;;;;;;5095747;28;20465;-82
2022/06/10 02:52:44;;;;;;;10.25;5.95;;;;;;;;;;5082400;28;20493;-82
2022/06/10 02:55:31;;;;;;;12.88;6.00;;;;;;;;;;5098173;28;20040;-82
2022/06/10 03:01:34;;;;;;;9.60;5.00;;;;;;;;;;5098477;28;20040;-82
2022/06/10 03:04:38;;;;;;;8.75;5.70;;;;;;;;;;5082184;28;20043;-82
2022/06/10 03:07:48;;;;;;;8.65;6.07;;;;;;;;;;5097714;28;20040;-83
2022/06/10 03:11:04;;;;;;;6.45;5.60;;;;;;;;;;5097898;28;20048;-83
2022/06/10 03:14:41;;;;;;;10.32;5.30;;;;;;;;;;5097750;28;20044;-83
2022/06/10 03:17:58;;;;;;;;;;;;;;;;;;5097450;28;20396;-83
2022/06/10 03:20:55;;;;;;;11.25;4.90;;;;;;;;;;5063675;28;19916;-82
2022/06/10 03:24:26;;;;;;;10.80;5.63;;;;;;;;;;5097744;28;20040;-82
2022/06/10 03:27:18;;;;;;;9.15;5.70;;;;;;;;;;5070185;28;20043;-82
2022/06/10 03:30:06;;;;;;;15.02;6.57;;;;;;;;;;5082006;28;20044;-82
2022/06/10 03:33:22;;;;;;;7.88;6.22;;;;;;;;;;5096635;28;20048;-82
2022/06/10 03:36:12;;;;;;;10.18;6.22;;;;;;;;;;5103802;28;20485;-82
2022/06/10 03:38:58;;;;;;;8.40;6.65;;;;;;;;;;5080805;28;20044;-83
2022/06/10 03:42:04;;;;;;;14.10;6.70;;;;;;;;;;5099739;22;20040;-82
2022/06/10 03:44:52;;;;;;;10.38;6.30;;;;;;;;;;5076771;28;20036;-82
2022/06/10 03:47:38;;;;;;;10.35;6.40;;;;;;;;;;5076781;28;20040;-80
2022/06/10 03:50:28;;;;;;;10.52;6.20;;;;;;;;;;5067928;28;20048;-82
2022/06/10 03:53:17;;;;;;;11.15;5.90;;;;;;;;;;5082420;28;20393;-82
2022/06/10 03:56:02;;;;;;;9.25;5.90;;;;;;;;;;5081991;28;20492;-82
2022/06/10 03:58:48;;;;;;;9.63;6.90;;;;;;;;;;5084327;28;20052;-81
2022/06/10 04:01:33;;;;;;;8.30;5.97;;;;;;;;;;5075572;28;20032;-83
2022/06/10 04:04:18;;;;;;;13.63;6.72;;;;;;;;;;5075348;28;20045;-81
2022/06/10 04:07:05;;;;;;;8.38;6.57;;;;;;;;;;5076403;28;20048;-81
2022/06/10 04:09:50;;;;;;;10.45;6.20;;;;;;;;;;5075589;28;20045;-81
2022/06/10 04:12:36;;;;;;;10.10;6.03;;;;;;;;;;5075796;28;20052;-81
2022/06/10 04:15:25;;;;;;;11.20;6.68;;;;;;;;;;5076062;28;20045;-81
2022/06/10 04:18:12;;;;;;;9.73;6.30;;;;;;;;;;5082460;28;20040;-82
2022/06/10 04:20:58;;;;;;;11.02;5.97;;;;;;;;;;5076151;28;20052;-81
2022/06/10 04:23:43;;;;;;;8.25;5.53;;;;;;;;;;5076342;28;20040;-81
2022/06/10 04:26:29;;;;;;;6.03;5.05;;;;;;;;;;5082253;28;20048;-81
2022/06/10 04:29:15;;;;;;;9.38;6.20;;;;;;;;;;5082387;28;20477;-81
2022/06/10 04:32:01;;;;;;;10.27;6.28;;;;;;;;;;5082195;28;20048;-80
2022/06/10 04:34:47;;;;;;;7.97;6.38;;;;;;;;;;5082059;28;20052;-81
2022/06/10 04:37:32;;;;;;;14.00;6.55;;;;;;;;;;5075539;28;20036;-81
2022/06/10 04:40:22;;;;;;;11.18;7.35;;;;;;;;;;5081865;28;20045;-81
2022/06/10 04:43:09;;;;;;;13.40;7.28;;;;;;;;;;5074792;28;20433;-81
2022/06/10 04:45:57;;;;;;;13.45;7.10;;;;;;;;;;5075501;28;20040;-81
2022/06/10 04:48:42;;;;;;;9.02;7.45;;;;;;;;;;5074682;28;20049;-81
2022/06/10 04:51:29;;;;;;;15.80;7.85;;;;;;;;;;5080943;28;20048;-81
2022/06/10 04:54:13;;;;;;;10.52;6.45;;;;;;;;;;5081523;28;20485;-81
2022/06/10 04:57:00;;;;;;;11.85;6.55;;;;;;;;;;5075374;28;20037;-80
2022/06/10 04:59:47;;;;;;;13.52;6.85;;;;;;;;;;5075411;28;20052;-81
2022/06/10 05:02:34;;;;;;;13.23;6.38;;;;;;;;;;5073900;28;20478;-81
2022/06/10 05:05:20;;;;;;;10.85;6.80;;;;;;;;;;5082554;28;20040;-80
2022/06/10 05:08:07;;;;;;;11.70;7.35;;;;;;;;;;5080218;28;20048;-82
2022/06/10 05:10:52;;;;;;;10.95;6.45;;;;;;;;;;5079184;28;20052;-81
2022/06/10 05:13:38;;;;;;;10.13;6.88;;;;;;;;;;5080445;28;20052;-82
2022/06/10 05:16:24;;;;;;;13.48;7.63;;;;;;;;;;5074385;28;20466;-81
2022/06/10 05:19:10;;;;;;;9.55;7.35;;;;;;;;;;5073497;28;20044;-81
2022/06/10 05:21:57;;;;;;;10.77;6.47;;;;;;;;;;5075003;28;20044;-80
2022/06/10 05:24:43;;;;;;;7.70;6.47;;;;;;;;;;5074623;28;20041;-81
2022/06/10 05:27:28;;;;;;;8.48;6.22;;;;;;;;;;5075262;28;20045;-81
2022/06/10 05:30:21;;;;;;;10.77;7.10;;;;;;;;;;5074170;28;20041;-81
2022/06/10 05:33:08;;;;;;;11.65;6.97;;;;;;;;;;5074933;28;20048;-81
2022/06/10 05:35:53;;;;;;;10.75;7.25;;;;;;;;;;5075012;28;20045;-82
2022/06/10 05:38:39;;;;;;;10.38;7.10;;;;;;;;;;5080595;28;20384;-80
2022/06/10 05:42:10;;;;;;;10.07;6.72;;;;;;;;;;5074258;28;20048;-80
2022/06/10 05:44:34;;;;;;;10.00;7.22;;;;;;;;;;5072852;28;20036;-83
2022/06/10 05:47:22;;;;;;;11.27;6.88;;;;;;;;;;5081269;28;20490;-80
2022/06/10 05:50:13;;;;;;;14.65;7.40;;;;;;;;;;5074332;28;20416;-81
2022/06/10 05:53:00;;;;;;;7.93;6.22;;;;;;;;;;5080643;28;20036;-82
2022/06/10 05:55:46;;;;;;;7.28;5.82;;;;;;;;;;5081387;28;20048;-80
2022/06/10 05:58:32;;;;;;;8.25;6.28;;;;;;;;;;5073925;28;20473;-81
2022/06/10 06:01:17;;;;;;;11.32;5.95;;;;;;;;;;5074343;28;20052;-81
2022/06/10 06:04:03;;;;;;;12.98;5.53;;;;;;;;;;5074499;28;20044;-82
2022/06/10 06:06:49;;;;;;;8.68;5.25;;;;;;;;;;5080273;28;20044;-81
2022/06/10 06:09:35;;;;;;;6.32;5.40;;;;;;;;;;5074627;28;20040;-81
2022/06/10 06:12:21;;;;;;;6.28;4.70;;;;;;;;;;5073687;28;20048;-82
2022/06/10 06:15:07;;;;;;;6.78;4.88;;;;;;;;;;5080844;28;20044;-81
2022/06/10 06:17:53;;;;;;;10.15;4.43;;;;;;;;;;5081604;28;20040;-82
2022/06/10 06:20:38;;;;;;;5.03;4.30;;;;;;;;;;5073598;28;20048;-82
2022/06/10 06:23:24;;;;;;;6.28;4.30;;;;;;;;;;5059029;28;20044;-82
2022/06/10 06:26:15;;;;;;;7.45;4.35;;;;;;;;;;5080337;28;20389;-83
2022/06/10 06:29:00;;;;;;;4.68;4.18;;;;;;;;;;5073907;28;20057;-81
2022/06/10 06:31:46;;;;;;;8.35;4.00;;;;;;;;;;5080530;28;20489;-83
2022/06/10 06:34:32;;;;;;;7.22;4.20;;;;;;;;;;5072531;28;20048;-83
2022/06/10 06:37:19;;;;;;;7.40;4.50;;;;;;;;;;5065665;28;20044;-83
2022/06/10 06:40:07;;;;;;;6.80;4.55;;;;;;;;;;5073394;28;20048;-83
2022/06/10 06:42:52;;;;;;;4.80;4.10;;;;;;;;;;5073107;28;20045;-82
2022/06/10 06:45:40;;;;;;;7.82;4.80;;;;;;;;;;5079722;28;20041;-82
2022/06/10 06:48:27;;;;;;;5.20;3.75;;;;;;;;;;5080419;28;20044;-83
2022/06/10 06:51:12;;;;;;;6.47;4.18;;;;;;;;;;5073557;28;20049;-83
2022/06/10 06:53:58;;;;;;;6.85;4.10;;;;;;;;;;5073968;28;20048;-82
2022/06/10 06:56:44;;;;;;;6.97;3.95;;;;;;;;;;5079762;28;20048;-83
2022/06/10 06:59:31;;;;;;;4.55;3.70;;;;;;;;;;5073539;28;20040;-83
2022/06/10 07:02:16;;;;;;;7.97;3.70;;;;;;;;;;5073151;28;20048;-83
2022/06/10 07:05:03;;;;;;;3.67;3.00;;;;;;;;;;5073197;28;20041;-83
2022/06/10 07:07:48;;;;;;;6.30;3.30;;;;;;;;;;5073361;28;20048;-78
2022/06/10 07:10:34;;;;;;;3.80;3.08;;;;;;;;;;5079256;28;20040;-77
2022/06/10 07:13:19;;;;;;;7.47;3.20;;;;;;;;;;5080293;28;20489;-78
2022/06/10 07:16:09;;;;;;;4.00;2.65;;;;;;;;;;5073130;28;20088;-83
2022/06/10 07:18:55;;;;;;;3.92;2.40;;;;;;;;;;5051330;28;20044;-82
2022/06/10 07:21:40;;;;;;;5.50;2.80;;;;;;;;;;5079036;28;20045;-82
2022/06/10 07:24:25;;;;;;;4.43;2.40;;;;;;;;;;5064214;28;20524;-82
2022/06/10 07:27:12;;;;;;;4.40;2.58;;;;;;;;;;5072467;28;20480;-82
2022/06/10 07:29:57;;;;;;;4.00;2.47;;;;;;;;;;5079181;28;20044;-82
2022/06/10 07:32:43;;;;;;;6.60;2.70;;;;;;;;;;5073088;28;20053;-82
2022/06/10 07:35:29;;;;;;;7.15;3.30;;;;;;;;;;5080907;28;20052;-82
2022/06/10 07:38:13;;;;;;;3.63;3.17;;;;;;;;;;5067900;28;20048;-83
2022/06/10 07:44:02;;;;;;;6.95;3.17;;;;;;;;;;5077046;28;20057;-82
2022/06/10 07:46:50;;;;;;;9.70;4.07;;;;;;;;;;5076163;28;20040;-82
2022/06/10 07:49:36;;;;;;;4.07;3.20;;;;;;;;;;5077391;28;20041;-82
2022/06/10 07:52:22;;;;;;;9.23;4.38;;;;;;;;;;5082993;28;20041;-82
2022/06/10 07:55:07;;;;;;;14.23;6.13;;;;;;;;;;5076855;28;20497;-81
2022/06/10 07:57:54;;;;;;;10.27;5.70;;;;;;;;;;5077237;28;20040;-81
2022/06/10 08:00:40;;;;;;;11.23;5.63;;;;;;;;;;5076092;28;20389;-81
2022/06/10 08:03:30;;;;;;;11.73;5.00;;;;;;;;;;5068288;28;20036;-82
2022/06/10 08:06:17;;;;;;;10.90;4.97;;;;;;;;;;5067316;28;20342;-80
2022/06/10 08:09:03;;;;;;;6.47;4.72;;;;;;;;;;5076014;28;20049;-82
2022/06/10 08:11:51;;;;;;;7.35;4.82;;;;;;;;;;5076605;28;20048;-83
2022/06/10 08:14:37;;;;;;;19.58;11.65;;;;;;;;;;5075439;28;20048;-82
2022/06/10 08:17:22;;;;;;;8.45;4.60;;;;;;;;;;5067614;28;20036;-82
2022/06/10 08:20:15;;;;;;;7.95;4.65;;;;;;;;;;5067881;28;20393;-82
2022/06/10 08:23:03;;;;;;;10.15;4.55;;;;;;;;;;5074980;28;20393;-81
2022/06/10 08:25:50;;;;;;;7.18;3.97;;;;;;;;;;5083073;28;20052;-80
2022/06/10 08:28:38;;;;;;;6.30;3.45;;;;;;;;;;5082110;28;20044;-78
2022/06/10 08:31:24;;;;;;;9.68;4.45;;;;;;;;;;5081133;28;20041;-81
2022/06/10 08:34:09;;;;;;;285.08;220.75;;;;;;;;;;5082411;28;20040;-78
2022/06/10 08:36:55;;;;;;;12.68;10.60;;;;;;;;;;5082141;28;20036;-80
2022/06/10 08:39:41;;;;;;;10.52;3.83;;;;;;;;;;5081510;28;20049;-80
2022/06/10 08:42:42;;;;;;;7.35;4.50;;;;;;;;;;5076532;28;20438;-84
2022/06/10 08:45:49;;;;;;;12.05;6.60;;;;;;;;;;5082297;28;20064;-83
2022/06/10 08:49:16;;;;;;;15.27;4.60;;;;;;;;;;5075094;28;20041;-82
2022/06/10 08:52:58;;;;;;;12.38;4.63;;;;;;;;;;5075814;28;20048;-82
2022/06/10 08:56:11;;;;;;;16.52;5.95;;;;;;;;;;5053492;28;20490;-84
2022/06/10 09:21:19;;;;;;;12.43;4.70;;;;;;;;;;5226480;22;20040;31
2022/06/10 09:24:33;;;;;;;7.80;4.43;;;;;;;;;;4969477;29;20051;-81
2022/06/10 09:27:29;;;;;;;5.38;3.95;;;;;;;;;;4954363;29;20394;-83
2022/06/10 09:30:18;;;;;;;7.18;3.90;;;;;;;;;;4959161;28;20043;-82
2022/06/10 09:33:29;;;;;;;8.65;4.25;;;;;;;;;;4974793;28;20047;-84
2022/06/10 09:36:38;;;;;;;5.28;4.03;;;;;;;;;;4966388;29;20046;-82
2022/06/10 09:43:18;;;;;;;6.78;3.33;;;;;;;;;;4903972;28;20052;-80
2022/06/10 09:46:17;;;;;;;5.13;3.47;;;;;;;;;;4968348;28;20047;-83
2022/06/10 09:49:26;;;;;;;5.07;3.65;;;;;;;;;;4965475;28;20047;-83
2022/06/10 09:52:17;;;;;;;6.72;4.00;;;;;;;;;;4979912;28;20059;-83
2022/06/10 09:55:11;;;;;;;8.75;4.10;;;;;;;;;;4961853;29;20047;-87
2022/06/10 09:58:11;;;;;;;6.25;3.92;;;;;;;;;;4960365;28;20525;-84
2022/06/10 10:01:12;;;;;;;4.65;3.08;;;;;;;;;;4961428;29;20062;-85
2022/06/10 10:04:09;;;;;;;3.70;2.90;;;;;;;;;;4967241;28;20051;-85
2022/06/10 10:07:00;;;;;;;6.18;2.53;;;;;;;;;;4958478;29;20043;-84
2022/06/10 10:10:02;;;;;;;5.45;3.20;;;;;;;;;;4957054;29;20047;-84
2022/06/10 10:13:25;;;;;;;6.90;3.92;;;;;;;;;;4975450;28;20051;-84
2022/06/10 10:16:30;;;;;;;5.57;3.38;;;;;;;;;;4962267;28;20047;-84
2022/06/10 10:19:31;;;;;;;4.65;3.40;;;;;;;;;;4956402;29;20055;-83
2022/06/10 10:22:38;;;;;;;5.63;3.17;;;;;;;;;;4948735;28;20055;-83
2022/06/10 10:25:25;;;;;;;3.63;3.17;;;;;;;;;;4936943;29;20066;-84
2022/06/10 10:28:28;;;;;;;5.10;3.17;;;;;;;;;;4936779;29;20044;-84
2022/06/10 10:31:24;;;;;;;4.03;3.35;;;;;;;;;;4943802;29;20048;-85
2022/06/10 10:34:26;;;;;;;5.03;3.15;;;;;;;;;;4936797;29;20052;-84
2022/06/10 10:37:27;;;;;;;3.45;2.95;;;;;;;;;;4923098;29;20475;-85
2022/06/10 10:40:19;;;;;;;4.38;2.72;;;;;;;;;;4937018;29;20487;-84
2022/06/10 10:43:16;;;;;;;3.45;2.70;;;;;;;;;;4937317;29;20048;-85
2022/06/10 10:46:25;;;;;;;3.35;2.60;;;;;;;;;;4937338;29;20475;-86
2022/06/10 10:49:24;;;;;;;4.15;2.55;;;;;;;;;;4922867;29;20044;-85
2022/06/10 10:52:24;;;;;;;4.57;2.53;;;;;;;;;;4937557;29;20048;-85
2022/06/10 10:55:12;;;;;;;6.72;3.00;;;;;;;;;;4936979;29;20052;-84
2022/06/10 10:58:01;;;;;;;5.72;2.28;;;;;;;;;;4937314;29;20044;-84
2022/06/10 11:00:59;;;;;;;2.75;2.35;;;;;;;;;;4915804;29;20063;-84
2022/06/10 11:03:51;;;;;;;7.07;3.25;;;;;;;;;;4929211;29;20059;-83
2022/06/10 11:06:37;;;;;;;4.40;2.92;;;;;;;;;;4929444;29;20052;-88
2022/06/10 11:09:25;;;;;;;5.28;3.40;;;;;;;;;;4928874;29;20051;-85
2022/06/10 11:12:15;;;;;;;7.60;3.83;;;;;;;;;;4932824;29;20048;-87
2022/06/10 11:15:06;;;;;;;11.05;3.22;;;;;;;;;;4932545;29;20051;-85
2022/06/10 11:17:51;;;;;;;12.07;3.35;;;;;;;;;;4932339;29;20047;-85
2022/06/10 11:20:36;;;;;;;5.97;3.45;;;;;;;;;;4933239;29;20056;-84
2022/06/10 11:23:26;;;;;;;4.57;3.13;;;;;;;;;;4925763;29;20410;-84
2022/06/10 11:26:20;;;;;;;9.48;3.40;;;;;;;;;;4940436;29;20039;-85
2022/06/10 11:29:11;;;;;;;6.07;3.35;;;;;;;;;;4946752;29;20051;-85
2022/06/10 11:32:00;;;;;;;5.82;3.15;;;;;;;;;;4940016;29;20040;-84
2022/06/10 11:34:59;;;;;;;5.30;3.53;;;;;;;;;;4940180;29;20056;-86
2022/06/10 11:37:49;;;;;;;5.43;3.33;;;;;;;;;;4931944;29;20052;-86
2022/06/10 11:40:48;;;;;;;6.65;3.65;;;;;;;;;;4932248;29;20048;-85
2022/06/10 11:43:46;;;;;;;6.70;3.10;;;;;;;;;;4931746;29;20506;-87
2022/06/10 11:46:54;;;;;;;8.75;2.88;;;;;;;;;;4945341;29;20052;-85
2022/06/10 11:49:46;;;;;;;3.72;3.10;;;;;;;;;;4939359;29;20055;-87
2022/06/10 11:52:51;;;;;;;5.28;3.08;;;;;;;;;;4931499;29;20047;-83
2022/06/10 11:55:41;;;;;;;6.63;3.20;;;;;;;;;;4932470;29;20059;-84
2022/06/10 12:02:21;;;;;;;3.47;2.95;;;;;;;;;;4930596;29;20063;-88
2022/06/10 12:09:37;;;;;;;5.00;3.13;;;;;;;;;;4931499;29;20043;-85
2022/06/10 12:12:29;;;;;;;6.18;3.30;;;;;;;;;;4944473;29;20040;-86
2022/06/10 12:15:21;;;;;;;5.57;3.10;;;;;;;;;;4931931;29;20060;-86
2022/06/10 12:18:34;;;;;;;6.70;3.30;;;;;;;;;;4931362;29;20059;-87
2022/06/10 12:21:22;;;;;;;6.40;3.15;;;;;;;;;;4919314;28;20079;-84
2022/06/10 12:24:13;;;;;;;5.10;3.30;;;;;;;;;;4935691;29;20044;-85
2022/06/10 12:27:02;;;;;;;6.57;3.13;;;;;;;;;;4947854;29;20047;-86
2022/06/10 12:30:34;;;;;;;13.45;3.75;;;;;;;;;;4948126;29;20047;-84
2022/06/10 12:33:31;;;;;;;5.70;3.28;;;;;;;;;;4897272;29;20055;-88
2022/06/10 12:36:43;;;;;;;5.07;3.55;;;;;;;;;;4921884;29;20055;-84
2022/06/10 12:39:36;;;;;;;3.88;3.20;;;;;;;;;;4920991;29;20051;-85
2022/06/10 12:42:56;;;;;;;6.25;3.70;;;;;;;;;;4933105;29;20043;-85
2022/06/10 12:45:47;;;;;;;8.05;3.85;;;;;;;;;;4930558;29;20047;-87
2022/06/10 12:48:41;;;;;;;5.50;3.55;;;;;;;;;;4931390;29;20052;-85
2022/06/10 12:51:43;;;;;;;4.57;3.38;;;;;;;;;;4930870;29;20055;-85
2022/06/10 12:54:46;;;;;;;3.97;3.17;;;;;;;;;;4917139;29;20055;-85
2022/06/10 12:57:45;;;;;;;7.68;4.07;;;;;;;;;;4930461;29;20052;-86
2022/06/10 13:04:21;;;;;;;3.35;3.05;;;;;;;;;;4865803;29;20406;-87
2022/06/10 13:07:26;;;;;;;5.45;3.53;;;;;;;;;;4929546;29;20051;-89
2022/06/10 13:10:29;;;;;;;4.35;3.35;;;;;;;;;;4930470;29;20382;-87
2022/06/10 13:13:22;;;;;;;9.80;3.70;;;;;;;;;;4929515;29;20051;-86
2022/06/10 13:16:25;;;;;;;5.60;4.05;;;;;;;;;;4916620;29;20422;-88
2022/06/10 13:19:49;;;;;;;6.85;3.97;;;;;;;;;;4930431;29;20047;-85
2022/06/10 13:22:38;;;;;;;9.90;4.20;;;;;;;;;;4926754;29;20043;-89
2022/06/10 13:25:26;;;;;;;7.43;4.38;;;;;;;;;;4930073;29;20055;-87
2022/06/10 13:28:23;;;;;;;6.72;4.05;;;;;;;;;;4929531;29;20051;-87
2022/06/10 13:31:16;;;;;;;5.40;4.03;;;;;;;;;;4911049;29;20043;-87
2022/06/10 13:34:06;;;;;;;5.47;4.32;;;;;;;;;;4942621;29;20047;-86
2022/06/10 13:36:59;;;;;;;7.28;4.70;;;;;;;;;;4916811;29;20399;-88
2022/06/10 13:39:47;;;;;;;6.22;4.30;;;;;;;;;;4929778;29;20399;-86
2022/06/10 13:42:37;;;;;;;5.55;4.38;;;;;;;;;;4929334;29;20387;-85
2022/06/10 13:45:39;;;;;;;5.82;4.88;;;;;;;;;;4916593;29;20047;-88
2022/06/10 13:48:29;;;;;;;10.63;5.53;;;;;;;;;;4942605;29;20047;-86
2022/06/10 13:51:28;;;;;;;7.18;4.45;;;;;;;;;;4929251;29;20055;-88
2022/06/10 13:54:19;;;;;;;7.50;5.32;;;;;;;;;;4929707;29;20059;-84
2022/06/10 13:57:32;;;;;;;7.40;5.10;;;;;;;;;;4929197;29;20413;-85
2022/06/10 14:00:21;;;;;;;7.68;4.32;;;;;;;;;;4922376;29;20055;-86
2022/06/10 14:03:24;;;;;;;5.78;3.88;;;;;;;;;;4935931;29;20039;-84
2022/06/10 14:06:15;;;;;;;5.93;4.20;;;;;;;;;;4929021;29;20055;-85
2022/06/10 14:09:11;;;;;;;7.72;3.97;;;;;;;;;;4942488;29;20051;-86
2022/06/10 14:12:02;;;;;;;4.45;3.42;;;;;;;;;;4937222;29;20048;-84
2022/06/10 14:14:49;;;;;;;6.28;3.10;;;;;;;;;;4943031;29;20059;-85
2022/06/10 14:17:34;;;;;;;7.63;3.50;;;;;;;;;;4928923;29;20055;-86
2022/06/10 14:20:24;;;;;;;17.13;9.00;;;;;;;;;;4928835;29;20043;-88
2022/06/10 14:23:26;;;;;;;6.88;4.68;;;;;;;;;;4922235;29;20052;-86
2022/06/10 14:26:10;;;;;;;5.72;3.38;;;;;;;;;;4929209;29;20051;-87
2022/06/10 14:29:12;;;;;;;4.85;3.50;;;;;;;;;;4928625;29;20048;-87
2022/06/10 14:32:00;;;;;;;5.82;3.53;;;;;;;;;;4928675;29;20048;-86
2022/06/10 14:34:47;;;;;;;5.60;3.03;;;;;;;;;;4928462;29;20067;-86
2022/06/10 14:37:39;;;;;;;7.10;3.00;;;;;;;;;;4928325;29;20051;-87
2022/06/10 14:40:25;;;;;;;3.28;2.75;;;;;;;;;;4928826;29;20059;-85
2022/06/10 14:54:34;;;;;;;4.35;2.90;;;;;;;;;;4994653;28;20050;-78
2022/06/10 14:57:27;;;;;;;5.07;2.60;;;;;;;;;;5004691;28;20038;-78
2022/06/10 15:00:17;;;;;;;7.28;3.40;;;;;;;;;;5004633;28;20042;-79
2022/06/10 15:03:09;;;;;;;7.95;2.90;;;;;;;;;;5004843;28;20046;-78
2022/06/10 15:06:19;;;;;;;6.13;3.22;;;;;;;;;;4984035;28;20407;-78
2022/06/10 15:09:14;;;;;;;7.38;3.28;;;;;;;;;;5004685;28;20038;-78
2022/06/10 15:12:13;;;;;;;5.90;3.50;;;;;;;;;;4989965;28;20058;-78
2022/06/10 15:14:58;;;;;;;3.60;2.90;;;;;;;;;;5004675;28;20068;-78
2022/06/10 15:17:46;;;;;;;7.47;2.97;;;;;;;;;;5004018;28;20042;-78
2022/06/10 15:20:40;;;;;;;6.50;3.05;;;;;;;;;;5004058;28;20054;-79
2022/06/10 15:23:25;;;;;;;7.30;3.70;;;;;;;;;;4997758;28;20058;-78
2022/06/10 15:26:12;;;;;;;5.53;3.72;;;;;;;;;;5003986;28;20042;-78
2022/06/10 15:28:57;;;;;;;4.95;2.90;;;;;;;;;;4998317;28;20046;-85
2022/06/10 15:31:43;;;;;;;8.93;3.78;;;;;;;;;;5004435;28;20046;-78
2022/06/10 15:34:29;;;;;;;4.63;3.85;;;;;;;;;;5004447;28;20046;-78
2022/06/10 15:43:27;;;;;;;5.75;3.53;;;;;;;;;;5004359;28;20038;-78
2022/06/10 15:46:25;;;;;;;7.80;3.33;;;;;;;;;;4997417;28;20042;-78
2022/06/10 15:49:10;;;;;;;7.97;3.60;;;;;;;;;;5003686;28;20046;-77
2022/06/10 15:51:57;;;;;;;7.55;2.60;;;;;;;;;;5002270;28;20054;-76
2022/06/10 15:57:57;;;;;;;13.27;5.55;;;;;;;;;;4997481;28;20054;-88
2022/06/10 16:00:48;;;;;;;14.13;6.15;;;;;;;;;;4997613;28;20046;-86
2022/06/10 16:03:34;;;;;;;6.97;5.32;;;;;;;;;;4989201;28;20049;-87
2022/06/10 16:20:37;;;;;;;12.23;9.63;;;;;;;;;;5003734;28;20046;-86
2022/06/10 16:23:40;;;;;;;16.15;9.77;;;;;;;;;;4989410;28;20050;-86
2022/06/10 16:26:33;;;;;;;13.32;9.25;;;;;;;;;;4983094;28;20042;-85
2022/06/10 16:29:27;;;;;;;11.05;8.35;;;;;;;;;;4995717;28;20046;-84
2022/06/10 16:32:32;;;;;;;14.27;7.97;;;;;;;;;;4988945;28;20403;-85
2022/06/10 16:35:25;;;;;;;10.07;6.97;;;;;;;;;;4988724;28;20050;-85
2022/06/10 16:38:59;;;;;;;7.43;6.63;;;;;;;;;;4988632;28;20039;-85
2022/06/10 16:41:47;;;;;;;7.22;6.18;;;;;;;;;;4996334;28;20043;-85
2022/06/10 16:45:21;;;;;;;7.00;5.80;;;;;;;;;;4996257;28;20042;-84
2022/06/10 16:48:30;;;;;;;11.50;5.80;;;;;;;;;;4971687;28;20050;-86
2022/06/10 16:51:17;;;;;;;6.32;5.50;;;;;;;;;;5002843;28;20046;-85
2022/06/10 16:54:02;;;;;;;9.88;7.13;;;;;;;;;;4996168;28;20050;-88
2022/06/10 16:56:48;;;;;;;13.13;7.38;;;;;;;;;;4982247;28;20043;-87
2022/06/10 16:59:37;;;;;;;18.33;6.68;;;;;;;;;;4981768;28;20046;-87
2022/06/10 17:02:28;;;;;;;9.95;7.65;;;;;;;;;;4996142;28;20503;-87
2022/06/10 17:05:17;;;;;;;14.95;9.65;;;;;;;;;;4996188;28;20042;-88
2022/06/10 17:08:32;;;;;;;11.23;8.38;;;;;;;;;;4986910;28;20042;-86
2022/06/10 17:12:08;;;;;;;11.52;6.20;;;;;;;;;;4985340;28;20054;-86
2022/06/10 17:15:36;;;;;;;9.48;6.18;;;;;;;;;;4990285;28;20050;-86
2022/06/10 17:19:20;;;;;;;6.95;5.63;;;;;;;;;;4984046;28;20038;-86
2022/06/10 17:22:43;;;;;;;13.63;6.10;;;;;;;;;;4987584;28;20423;-86
2022/06/10 17:25:40;;;;;;;8.75;5.72;;;;;;;;;;4982550;28;20046;-87
2022/06/10 17:28:26;;;;;;;6.55;5.55;;;;;;;;;;4994635;28;20050;-87
2022/06/10 17:31:14;;;;;;;12.02;6.10;;;;;;;;;;4995459;28;20035;-87
2022/06/10 17:34:02;;;;;;;7.97;6.40;;;;;;;;;;5000982;28;20042;-86
2022/06/10 17:36:52;;;;;;;10.00;6.13;;;;;;;;;;4994622;28;20050;-88
2022/06/10 17:39:38;;;;;;;6.88;6.22;;;;;;;;;;4995681;28;20050;-87
2022/06/10 17:42:36;;;;;;;8.55;7.00;;;;;;;;;;4995810;28;20046;-87
2022/06/10 17:45:28;;;;;;;8.95;6.57;;;;;;;;;;4996165;28;20046;-86
2022/06/10 17:48:20;;;;;;;10.30;6.97;;;;;;;;;;4994439;28;20046;-87
2022/06/10 17:51:11;;;;;;;11.13;7.90;;;;;;;;;;4987081;28;20042;-88
2022/06/10 17:53:57;;;;;;;10.45;7.75;;;;;;;;;;4994716;28;20054;-87
2022/06/10 17:56:43;;;;;;;15.15;9.90;;;;;;;;;;4997518;28;20038;-89
2022/06/10 17:59:35;;;;;;;11.27;8.52;;;;;;;;;;4997610;28;20046;-88
2022/06/10 18:02:28;;;;;;;14.07;9.60;;;;;;;;;;4995457;28;20042;-88
2022/06/10 18:05:20;;;;;;;15.15;9.35;;;;;;;;;;4988731;28;20045;-89
2022/06/10 18:08:15;;;;;;;13.15;9.48;;;;;;;;;;4983786;28;20043;-89
2022/06/10 18:11:00;;;;;;;12.35;9.48;;;;;;;;;;4997327;28;20050;-90
2022/06/10 18:14:57;;;;;;;11.90;9.10;;;;;;;;;;4987359;28;20042;-89
2022/06/10 18:17:43;;;;;;;17.27;9.75;;;;;;;;;;4993444;28;20046;-90
2022/06/10 18:24:32;;;;;;;11.55;9.05;;;;;;;;;;4994643;28;20051;-89
2022/06/10 18:27:37;;;;;;;10.35;8.98;;;;;;;;;;4974846;28;20038;-87
2022/06/10 18:30:42;;;;;;;11.60;8.48;;;;;;;;;;4974232;28;20405;-88
2022/06/10 18:34:07;;;;;;;12.73;8.95;;;;;;;;;;4974232;28;20042;-87
2022/06/10 18:36:55;;;;;;;11.07;8.50;;;;;;;;;;4980229;28;20047;-90
2022/06/10 18:40:45;;;;;;;11.45;7.53;;;;;;;;;;4967862;28;20050;-89
2022/06/10 18:43:34;;;;;;;12.32;9.35;;;;;;;;;;4955407;28;20043;-81
2022/06/10 18:46:26;;;;;;;10.90;9.55;;;;;;;;;;4966943;28;20055;-86